Latest Weather Observations for King Island Airport

IDT60801

Issued at 2:11 pm EST Thursday 28 May 2020 (issued every 10 minutes, with the page automatically refreshed every 10 minutes)

About weather observations | Map of weather stations | Latest weather observations for TAS | Other Formats
Station Details ID: 098017 Name: KING ISLAND AIRPORT Lat: -39.88 Lon: 143.89 Height: 35.42 m
Data from the previous 72 hours. | See also: Recent months at King Island Airport
Date/Time
EST
Temp
°C
App
Temp
°C
Dew
Point
°C
Rel
Hum
%
Delta-T
°C
Wind Press
QNH
hPa
Press
MSL
hPa
Rain since
9am
mm
Dir  Spd
km/h
Gust
km/h
Spd
kts
Gust
kts
28/02:00pm 14.4 9.3 9.2 71 2.7 W 26 37 14 20 1019.2 1019.2 0.4
28/01:30pm 13.9 9.3 9.5 75 2.3 W 24 30 13 16 1019.5 1019.5 0.4
28/01:00pm 13.9 8.9 9.5 75 2.2 W 26 37 14 20 1019.6 1019.6 0.4
28/12:30pm 13.3 7.3 8.6 73 2.4 W 30 39 16 21 1019.8 1019.8 0.4
28/12:00pm 13.0 6.9 9.8 81 1.6 WNW 32 43 17 23 1019.9 1019.9 0.4
28/11:30am 13.0 7.7 11.2 89 0.9 WNW 30 39 16 21 1020.0 1020.0 0.4
28/11:05am 13.1 8.4 12.0 93 0.6 WNW 28 39 15 21 1019.9 1019.9 0.4
28/11:00am 12.9 9.0 12.1 95 0.4 WNW 24 33 13 18 1020.0 1020.0 0.4
28/10:58am 13.0 9.6 12.5 97 0.3 WNW 22 32 12 17 1019.9 1019.9 0.4
28/10:46am 12.7 8.9 12.5 99 0.1 W 24 32 13 17 1020.0 1020.0 0.4
28/10:30am 13.1 8.7 12.9 99 0.1 WNW 28 35 15 19 1019.9 1019.9 0.2
28/10:26am 13.9 9.8 13.7 99 0.1 WNW 28 37 15 20 1019.9 1019.9 0.2
28/10:12am 12.9 9.6 12.7 99 0.1 W 22 32 12 17 1019.9 1019.9 0.2
28/10:08am 12.5 9.0 12.3 99 0.1 W 22 32 12 17 1019.9 1019.9 0.2
28/10:00am 12.7 9.7 12.5 99 0.1 WNW 20 28 11 15 1019.7 1019.7 0.0
28/09:30am 12.5 9.0 12.3 99 0.1 W 22 30 12 16 1019.6 1019.6 0.0
28/09:28am 12.6 9.2 12.4 99 0.1 W 22 30 12 16 1019.6 1019.6 0.0
28/09:24am 12.7 9.7 12.5 99 0.1 W 20 30 11 16 1019.6 1019.6 0.0
28/09:16am 12.0 7.6 11.8 99 0.1 WNW 26 39 14 21 1019.5 1019.5 0.0
28/09:12am 12.0 8.0 11.8 99 0.1 W 24 39 13 21 1019.5 1019.5 0.0
28/09:00am 12.2 8.6 12.0 99 0.1 WNW 22 32 12 17 1019.5 1019.5 5.6
28/08:53am 12.2 9.0 12.0 99 0.1 W 20 32 11 17 1019.5 1019.5 5.4
28/08:48am 12.1 9.1 11.9 99 0.1 W 19 32 10 17 1019.4 1019.4 5.4
28/08:43am 12.3 9.7 12.1 99 0.1 W 17 24 9 13 1019.3 1019.3 5.4
28/08:32am 12.2 9.1 12.2 100 0.0 W 20 26 11 14 1019.2 1019.2 5.4
28/08:30am 12.1 9.0 12.1 100 0.0 W 20 26 11 14 1019.2 1019.2 5.4
28/08:25am 12.1 8.9 11.9 99 0.1 WNW 20 28 11 15 1019.2 1019.2 5.2
28/08:12am 11.7 7.6 11.5 99 0.1 WNW 24 30 13 16 1019.0 1019.0 5.2
28/08:00am 11.9 9.2 11.7 99 0.1 W 17 24 9 13 1019.0 1019.0 5.2
28/07:48am 11.9 8.6 11.7 99 0.1 W 20 28 11 15 1018.9 1018.9 5.2
28/07:33am 11.9 7.5 11.7 99 0.1 WNW 26 35 14 19 1018.8 1018.8 5.2
28/07:30am 12.0 7.6 11.8 99 0.1 WNW 26 32 14 17 1018.7 1018.7 5.2
28/07:03am 11.8 8.7 11.6 99 0.1 W 19 28 10 15 1018.5 1018.5 5.2
28/07:00am 11.9 8.8 11.7 99 0.1 W 19 26 10 14 1018.5 1018.5 5.2
28/06:46am 11.5 7.7 11.3 99 0.1 W 22 35 12 19 1018.3 1018.3 5.2
28/06:30am 12.0 8.0 11.8 99 0.1 WNW 24 35 13 19 1018.1 1018.1 5.2
28/06:08am 11.7 8.6 11.5 99 0.1 WNW 19 24 10 13 1018.0 1018.0 5.0
28/06:00am 11.9 8.6 11.7 99 0.1 WNW 20 30 11 16 1018.0 1018.0 5.0
28/05:57am 11.9 8.6 11.7 99 0.1 WNW 20 30 11 16 1018.0 1018.0 5.0
28/05:30am 11.7 8.4 11.5 99 0.1 W 20 26 11 14 1017.9 1017.9 4.8
28/05:05am 11.7 8.0 11.5 99 0.1 WNW 22 32 12 17 1017.8 1017.8 4.8
28/05:00am 11.8 7.4 11.6 99 0.1 WNW 26 35 14 19 1017.7 1017.7 4.8
28/04:55am 11.9 7.9 11.7 99 0.1 WNW 24 35 13 19 1017.7 1017.7 4.8
28/04:53am 11.8 8.5 11.6 99 0.1 WNW 20 32 11 17 1017.7 1017.7 4.8
28/04:49am 12.0 9.0 11.8 99 0.1 WNW 19 24 10 13 1017.7 1017.7 4.8
28/04:35am 12.2 8.6 12.0 99 0.1 WNW 22 30 12 16 1017.6 1017.6 4.6
28/04:31am 12.2 9.0 12.0 99 0.1 W 20 30 11 16 1017.6 1017.6 4.4
28/04:30am 12.2 9.0 12.0 99 0.1 W 20 30 11 16 1017.6 1017.6 4.4
28/04:00am 11.4 8.6 11.2 99 0.1 WNW 17 22 9 12 1017.4 1017.4 4.4
28/03:54am 11.4 8.6 11.2 99 0.1 WNW 17 22 9 12 1017.4 1017.4 4.4
28/03:36am 11.8 8.7 11.6 99 0.1 W 19 32 10 17 1017.4 1017.4 4.4
28/03:35am 11.8 9.1 11.6 99 0.1 W 17 28 9 15 1017.5 1017.5 4.4
28/03:30am 11.8 9.1 11.6 99 0.1 W 17 20 9 11 1017.4 1017.4 4.2
28/03:16am 11.9 10.0 11.7 99 0.1 WNW 13 15 7 8 1017.3 1017.3 3.8
28/03:06am 11.3 9.2 11.1 99 0.1 WNW 13 19 7 10 1017.3 1017.3 3.0
28/03:00am 11.4 8.6 11.2 99 0.1 WNW 17 24 9 13 1017.3 1017.3 3.0
28/02:45am 11.8 8.7 11.6 99 0.1 WNW 19 39 10 21 1017.3 1017.3 2.8
28/02:30am 11.9 10.0 11.7 99 0.1 W 13 19 7 10 1017.2 1017.2 2.4
28/02:24am 12.0 9.7 11.8 99 0.1 W 15 20 8 11 1017.2 1017.2 2.4
28/02:09am 12.1 9.8 11.9 99 0.1 W 15 28 8 15 1017.2 1017.2 2.2
28/02:00am 12.1 9.5 11.9 99 0.1 WNW 17 22 9 12 1017.1 1017.1 2.2
28/01:30am 11.9 9.2 11.7 99 0.1 WNW 17 24 9 13 1017.0 1017.0 2.2
28/01:03am 12.3 9.7 12.1 99 0.1 W 17 22 9 12 1017.1 1017.1 2.2
28/01:00am 12.3 9.7 12.1 99 0.1 W 17 24 9 13 1017.1 1017.1 2.2
28/12:31am 12.3 9.3 12.1 99 0.1 WNW 19 24 10 13 1017.1 1017.1 2.2
28/12:30am 12.3 9.7 12.1 99 0.1 WNW 17 24 9 13 1017.1 1017.1 2.2
28/12:14am 12.1 9.9 12.1 100 0.0 WNW 15 19 8 10 1017.1 1017.1 2.2
28/12:00am 12.5 10.1 12.5 100 0.0 WNW 17 24 9 13 1017.2 1017.2 2.2
 
Date/Time
EST
Temp
°C
App
Temp
°C
Dew
Point
°C
Rel
Hum
%
Delta-T
°C
Wind Press
QNH
hPa
Press
MSL
hPa
Rain since
9am
mm
Dir  Spd
km/h
Gust
km/h
Spd
kts
Gust
kts
27/11:49pm 12.6 10.6 12.6 100 0.0 NW 15 30 8 16 1017.1 1017.1 2.2
27/11:30pm 12.6 10.2 12.6 100 0.0 NW 17 22 9 12 1017.1 1017.1 2.0
27/11:02pm 13.0 9.4 13.0 100 0.0 NW 24 32 13 17 1017.0 1017.0 2.0
27/11:00pm 12.9 9.3 12.9 100 0.0 NNW 24 32 13 17 1017.0 1017.0 2.0
27/10:30pm 12.9 8.0 12.7 99 0.1 NNW 30 35 16 19 1017.0 1017.0 0.8
27/10:27pm 12.9 8.0 12.7 99 0.1 NNW 30 35 16 19 1017.0 1017.0 0.6
27/10:00pm 13.3 8.6 13.1 99 0.1 NNW 30 39 16 21 1017.0 1017.0 0.2
27/09:38pm 13.1 9.5 12.9 99 0.1 NNW 24 33 13 18 1017.0 1017.0 0.2
27/09:30pm 13.2 9.6 12.9 98 0.2 NNW 24 33 13 18 1017.0 1017.0 0.2
27/09:00pm 13.4 10.6 13.2 99 0.1 NW 20 26 11 14 1016.9 1016.9 0.2
27/08:30pm 13.5 9.3 12.4 93 0.6 NNW 26 37 14 20 1016.9 1016.9 0.0
27/08:00pm 14.2 9.0 10.2 77 2.1 N 28 39 15 21 1016.8 1016.8 0.0
27/07:30pm 14.0 10.3 9.4 74 2.4 N 19 24 10 13 1016.6 1016.6 0.0
27/07:00pm 13.8 10.5 9.5 75 2.2 N 17 24 9 13 1016.6 1016.6 0.0
27/06:30pm 13.2 10.0 9.8 80 1.7 N 17 20 9 11 1016.4 1016.4 0.0
27/06:00pm 12.7 10.3 10.1 84 1.3 NNE 13 17 7 9 1016.4 1016.4 0.0
27/05:30pm 12.7 10.2 9.7 82 1.5 NNE 13 15 7 8 1016.3 1016.3 0.0
27/05:00pm 13.5 10.9 9.2 75 2.2 N 13 17 7 9 1016.2 1016.2 0.0
27/04:30pm 14.1 10.1 8.3 68 2.9 N 19 26 10 14 1016.2 1016.2 0.0
27/04:00pm 14.4 9.4 7.9 65 3.2 N 24 33 13 18 1015.9 1015.9 0.0
27/03:30pm 14.9 10.5 8.8 67 3.1 N 22 30 12 16 1016.0 1016.0 0.0
27/03:00pm 14.3 9.8 8.5 68 2.9 N 22 32 12 17 1015.9 1015.9 0.0
27/02:30pm 14.7 9.4 8.6 67 3.1 N 26 32 14 17 1016.1 1016.1 0.0
27/02:00pm 15.1 9.8 8.3 64 3.4 N 26 33 14 18 1016.2 1016.2 0.0
27/01:30pm 15.2 9.5 8.4 64 3.4 N 28 35 15 19 1016.5 1016.5 0.0
27/01:00pm 15.3 9.5 8.1 62 3.6 N 28 35 15 19 1016.7 1016.7 0.0
27/12:30pm 15.3 11.6 10.3 72 2.6 N 20 30 11 16 1017.1 1017.1 0.0
27/12:00pm 15.0 10.6 10.4 74 2.4 N 24 32 13 17 1017.4 1017.4 0.0
27/11:30am 15.9 10.2 8.4 61 3.8 N 28 35 15 19 1017.8 1017.8 0.0
27/11:00am 15.5 11.7 11.1 75 2.3 N 22 30 12 16 1018.3 1018.3 0.0
27/10:30am 15.3 11.3 11.9 80 1.8 N 24 35 13 19 1018.6 1018.6 0.0
27/10:00am 14.5 10.9 11.7 83 1.5 N 22 33 12 18 1018.6 1018.6 0.0
27/09:30am 13.1 10.0 12.2 94 0.5 N 20 26 11 14 1018.7 1018.7 0.0
27/09:00am 12.9 10.4 12.4 97 0.3 NNE 17 22 9 12 1018.9 1018.9 0.2
27/08:30am 11.9 9.1 11.3 96 0.3 NE 17 24 9 13 1018.9 1018.9 0.2
27/08:00am 11.5 8.6 11.0 97 0.3 NE 17 20 9 11 1018.9 1018.9 0.2
27/07:30am 11.4 8.9 11.2 99 0.1 NNE 15 20 8 11 1018.9 1018.9 0.2
27/07:00am 11.1 8.9 10.9 99 0.1 NE 13 15 7 8 1018.7 1018.7 0.2
27/06:30am 11.6 8.8 11.4 99 0.1 NE 17 20 9 11 1018.7 1018.7 0.2
27/06:00am 11.1 8.6 10.9 99 0.1 NE 15 19 8 10 1018.8 1018.8 0.2
27/05:30am 11.1 8.6 10.9 99 0.1 NE 15 20 8 11 1019.0 1019.0 0.2
27/05:00am 11.0 8.8 10.8 99 0.1 NE 13 17 7 9 1019.0 1019.0 0.2
27/04:30am 10.6 8.3 10.4 99 0.1 NE 13 17 7 9 1019.1 1019.1 0.2
27/04:00am 10.4 8.0 10.2 99 0.1 NE 13 17 7 9 1019.3 1019.3 0.0
27/03:30am 10.4 8.0 10.2 99 0.1 NE 13 17 7 9 1019.5 1019.5 0.0
27/03:00am 10.8 8.2 10.6 99 0.1 NE 15 20 8 11 1019.6 1019.6 0.0
27/02:30am 11.1 8.2 10.9 99 0.1 NE 17 20 9 11 1019.8 1019.8 0.0
27/02:00am 11.0 8.0 10.8 99 0.1 NE 17 19 9 10 1019.8 1019.8 0.0
27/01:30am 11.4 8.2 11.2 99 0.1 NE 19 22 10 12 1019.8 1019.8 0.0
27/01:00am 11.5 8.7 11.3 99 0.1 NE 17 24 9 13 1020.1 1020.1 0.0
27/12:30am 11.6 8.4 11.4 99 0.1 NE 19 24 10 13 1019.9 1019.9 0.0
27/12:00am 11.7 8.6 11.5 99 0.1 ENE 19 28 10 15 1020.1 1020.1 0.0
 
Date/Time
EST
Temp
°C
App
Temp
°C
Dew
Point
°C
Rel
Hum
%
Delta-T
°C
Wind Press
QNH
hPa
Press
MSL
hPa
Rain since
9am
mm
Dir  Spd
km/h
Gust
km/h
Spd
kts
Gust
kts
26/11:30pm 11.7 8.6 11.5 99 0.1 ENE 19 24 10 13 1020.4 1020.4 0.0
26/11:00pm 11.7 8.4 11.5 99 0.1 ENE 20 28 11 15 1020.4 1020.4 0.0
26/10:30pm 11.2 7.6 10.6 96 0.3 ENE 20 26 11 14 1020.8 1020.8 0.0
26/10:00pm 10.5 6.6 8.8 89 0.8 ENE 19 26 10 14 1020.8 1020.8 0.0
26/09:30pm 10.2 6.3 8.8 91 0.7 ENE 19 22 10 12 1021.2 1021.3 0.0
26/09:00pm 9.9 6.1 9.0 94 0.4 ENE 19 22 10 12 1021.2 1021.3 0.0
26/08:30pm 9.6 6.2 9.3 98 0.1 ENE 17 22 9 12 1021.3 1021.4 0.0
26/08:00pm 9.5 6.5 9.4 99 0.0 E 15 20 8 11 1021.4 1021.5 0.0
26/07:30pm 8.4 5.5 8.3 99 0.0 ESE 13 15 7 8 1021.3 1021.4 0.0
26/07:00pm 9.1 6.4 9.0 99 0.0 E 13 15 7 8 1021.5 1021.6 0.0
26/06:30pm 9.3 6.9 8.8 97 0.2 ENE 11 13 6 7 1021.8 1021.9 0.0
26/06:00pm 9.7 7.0 8.9 95 0.4 ENE 13 17 7 9 1021.6 1021.7 0.0
26/05:30pm 10.0 7.3 8.8 92 0.6 ENE 13 15 7 8 1021.7 1021.8 0.0
26/05:00pm 11.1 8.4 9.0 87 1.0 ENE 13 19 7 10 1021.6 1021.7 0.0
26/04:30pm 12.1 8.1 8.9 81 1.6 NE 20 26 11 14 1021.7 1021.8 0.0
26/04:00pm 12.8 8.8 9.1 78 1.9 NE 20 30 11 16 1021.8 1021.9 0.0
26/03:30pm 12.9 8.6 9.4 79 1.8 NE 22 32 12 17 1022.0 1022.1 0.0
26/03:00pm 14.1 9.5 9.7 75 2.3 ENE 24 32 13 17 1022.0 1022.1 0.0
26/02:30pm 14.3 9.7 9.7 74 2.4 NE 24 35 13 19 1022.2 1022.3 0.0
26/02:00pm 15.0 9.8 10.2 73 2.5 NE 28 35 15 19 1022.2 1022.3 0.0
26/01:30pm 13.8 9.7 10.2 79 1.9 ENE 22 37 12 20 1022.6 1022.7 0.0
26/01:12pm 14.3 8.6 9.9 75 2.3 NE 30 48 16 26 1022.7 1022.8 0.0
26/01:00pm 13.9 7.4 9.1 73 2.4 NE 33 44 18 24 1022.7 1022.8 0.0
26/12:30pm 14.2 8.0 10.0 76 2.2 NE 33 48 18 26 1023.1 1023.2 0.0
26/12:00pm 13.9 6.7 9.3 74 2.3 NE 37 56 20 30 1023.6 1023.7 0.0
26/11:30am 14.3 7.6 9.5 73 2.5 NE 35 54 19 29 1023.8 1023.9 0.0
26/11:06am 14.2 7.8 9.4 73 2.5 NE 33 54 18 29 1024.3 1024.4 0.0
26/11:00am 14.2 7.5 9.6 74 2.4 NE 35 52 19 28 1024.3 1024.4 0.0
26/10:30am 13.8 7.4 9.3 74 2.3 NE 33 54 18 29 1024.4 1024.5 0.0
26/10:02am 13.6 6.8 9.3 75 2.2 ENE 35 54 19 29 1024.5 1024.6 0.0
26/10:00am 13.6 6.4 9.3 75 2.2 ENE 37 54 20 29 1024.6 1024.7 0.0
26/09:37am 13.2 6.7 9.1 76 2.1 ENE 33 54 18 29 1025.0 1025.0 0.0
26/09:30am 13.3 7.1 9.4 77 2.0 ENE 32 43 17 23 1025.1 1025.1 0.0
26/09:00am 12.8 8.0 8.9 77 1.9 NE 24 41 13 22 1025.7 1025.7 0.0
26/08:42am 12.3 6.7 8.6 78 1.8 ENE 28 46 15 25 1025.5 1025.5 0.0
26/08:30am 12.0 7.2 8.7 80 1.6 NE 24 35 13 19 1025.7 1025.7 0.0
26/08:00am 11.6 7.5 8.8 83 1.4 NE 20 30 11 16 1025.8 1025.8 0.0
26/07:30am 11.0 6.8 8.4 84 1.3 ENE 20 32 11 17 1025.5 1025.5 0.0
26/07:00am 11.1 6.6 8.7 85 1.2 NE 22 32 12 17 1025.4 1025.4 0.0
26/06:30am 11.2 6.2 9.6 90 0.8 ENE 26 35 14 19 1025.1 1025.1 0.0
26/06:00am 11.2 7.1 10.0 92 0.6 ENE 22 28 12 15 1025.1 1025.1 0.0
26/05:30am 11.0 7.3 10.1 94 0.5 ENE 20 28 11 15 1024.9 1024.9 0.0
26/05:00am 11.3 6.8 9.9 91 0.7 ENE 24 32 13 17 1025.0 1025.0 0.0
26/04:30am 11.4 7.0 10.5 94 0.5 ENE 24 35 13 19 1025.0 1025.0 0.0
26/04:00am 11.4 6.5 9.8 90 0.8 ENE 26 37 14 20 1025.1 1025.1 0.0
26/03:30am 11.4 7.3 10.1 92 0.7 ENE 22 30 12 16 1025.4 1025.4 0.0
26/03:00am 10.6 7.0 10.0 96 0.3 ENE 19 28 10 15 1025.5 1025.5 0.0
26/02:30am 10.6 7.0 10.0 96 0.3 ENE 19 24 10 13 1025.7 1025.7 0.0
26/02:00am 10.4 6.2 9.8 96 0.3 ENE 22 30 12 16 1025.8 1025.8 0.0
26/01:30am 11.1 6.7 10.5 96 0.3 ENE 24 35 13 19 1026.0 1026.0 0.0
26/01:00am 10.6 6.8 9.8 95 0.4 ENE 20 28 11 15 1026.4 1026.4 0.0
26/12:58am 10.6 6.8 9.8 95 0.4 ENE 20 30 11 16 1026.4 1026.4 0.0
26/12:38am 11.1 7.3 9.9 92 0.6 ENE 20 30 11 16 1026.6 1026.6 0.0
26/12:30am 11.1 7.8 9.7 91 0.7 NE 17 24 9 13 1026.7 1026.7 0.0
26/12:00am 10.7 6.3 8.8 88 0.9 ENE 22 32 12 17 1026.6 1026.6 0.0
 
Date/Time
EST
Temp
°C
App
Temp
°C
Dew
Point
°C
Rel
Hum
%
Delta-T
°C
Wind Press
QNH
hPa
Press
MSL
hPa
Rain since
9am
mm
Dir  Spd
km/h
Gust
km/h
Spd
kts
Gust
kts
25/11:30pm 11.1 6.4 7.8 80 1.6 ENE 22 32 12 17 1026.7 1026.7 0.0
25/11:00pm 10.7 6.4 7.2 79 1.7 ENE 19 26 10 14 1027.1 1027.1 0.0
25/10:30pm 10.8 6.7 7.7 81 1.5 ENE 19 28 10 15 1027.1 1027.1 0.0
25/10:00pm 10.9 6.5 7.2 78 1.8 ENE 20 30 11 16 1027.1 1027.1 0.0
25/09:30pm 11.1 7.3 7.6 79 1.7 ENE 17 22 9 12 1026.8 1026.8 0.0
25/09:00pm 10.6 6.7 7.3 80 1.6 ENE 17 20 9 11 1026.7 1026.7 0.0
25/08:30pm 10.7 7.3 7.6 81 1.5 ENE 15 19 8 10 1026.9 1026.9 0.0
25/08:00pm 10.7 7.5 7.0 78 1.7 ENE 13 17 7 9 1027.2 1027.2 0.0
25/07:30pm 10.9 7.4 7.0 77 1.9 ENE 15 20 8 11 1027.0 1027.0 0.0
25/07:00pm 11.0 8.5 8.1 82 1.4 ENE 11 13 6 7 1027.1 1027.1 0.0
25/06:30pm 10.7 8.3 8.6 87 1.0 E 11 15 6 8 1026.9 1026.9 0.0
25/06:00pm 11.2 9.6 8.6 84 1.3 ESE 7 9 4 5 1026.7 1026.7 0.0
25/05:30pm 11.3 9.8 8.5 83 1.4 E 6 9 3 5 1026.8 1026.8 0.0
25/05:00pm 11.8 9.6 7.9 77 1.9 E 9 11 5 6 1026.7 1026.7 0.0
25/04:30pm 12.3 9.8 8.0 75 2.1 ENE 11 15 6 8 1026.5 1026.5 0.0
25/04:00pm 13.0 10.0 7.7 70 2.6 NE 13 19 7 10 1026.4 1026.4 0.0
25/03:30pm 13.7 10.6 7.2 65 3.2 ENE 13 15 7 8 1026.5 1026.5 0.0
25/03:00pm 14.2 11.6 7.7 65 3.2 ENE 11 15 6 8 1026.5 1026.5 0.0
25/02:30pm 14.4 11.7 7.5 63 3.4 NE 11 17 6 9 1026.4 1026.4 0.0

Other formats

Comma delimited format used in spreadsheet applications
http://www.bom.gov.au/fwo/IDT60801/IDT60801.94850.axf

JavaScript Object Notation format (JSON) in row-major order
http://www.bom.gov.au/fwo/IDT60801/IDT60801.94850.json

Data quality

Most of these data are generated automatically and are frequently updated. Quality checks on data are not normally performed. It is possible for incorrect values to appear. Refer to information at About Latest Weather Observations and please check the disclaimer before using these data.